sensor_id;sensor_type;location;lat;lon;timestamp;P1;durP1;ratioP1;P2;durP2;ratioP2
74674;SDS011;63200;48.810;12.352;2023-12-20T00:02:20;18.15;;;11.52;;
74674;SDS011;63200;48.810;12.352;2023-12-20T00:04:46;16.98;;;11.52;;
74674;SDS011;63200;48.810;12.352;2023-12-20T00:07:11;17.67;;;11.25;;
74674;SDS011;63200;48.810;12.352;2023-12-20T00:09:37;20.73;;;11.30;;
74674;SDS011;63200;48.810;12.352;2023-12-20T00:12:02;23.67;;;10.90;;
74674;SDS011;63200;48.810;12.352;2023-12-20T00:14:27;20.60;;;11.50;;
74674;SDS011;63200;48.810;12.352;2023-12-20T00:16:52;20.40;;;12.02;;
74674;SDS011;63200;48.810;12.352;2023-12-20T00:19:18;20.63;;;11.55;;
74674;SDS011;63200;48.810;12.352;2023-12-20T00:21:43;18.30;;;10.07;;
74674;SDS011;63200;48.810;12.352;2023-12-20T00:24:08;21.20;;;11.35;;
74674;SDS011;63200;48.810;12.352;2023-12-20T00:26:33;19.10;;;11.13;;
74674;SDS011;63200;48.810;12.352;2023-12-20T00:28:59;18.20;;;11.10;;
74674;SDS011;63200;48.810;12.352;2023-12-20T00:31:24;16.40;;;10.23;;
74674;SDS011;63200;48.810;12.352;2023-12-20T00:33:50;18.33;;;10.00;;
74674;SDS011;63200;48.810;12.352;2023-12-20T00:36:15;15.40;;;9.88;;
74674;SDS011;63200;48.810;12.352;2023-12-20T00:38:40;18.98;;;10.43;;
74674;SDS011;63200;48.810;12.352;2023-12-20T00:41:05;19.40;;;9.80;;
74674;SDS011;63200;48.810;12.352;2023-12-20T00:43:31;15.52;;;9.30;;
74674;SDS011;63200;48.810;12.352;2023-12-20T00:45:56;16.42;;;9.55;;
74674;SDS011;63200;48.810;12.352;2023-12-20T00:48:22;16.50;;;9.75;;
74674;SDS011;63200;48.810;12.352;2023-12-20T00:50:47;17.20;;;9.95;;
74674;SDS011;63200;48.810;12.352;2023-12-20T00:53:13;16.73;;;9.95;;
74674;SDS011;63200;48.810;12.352;2023-12-20T00:55:38;16.25;;;10.10;;
74674;SDS011;63200;48.810;12.352;2023-12-20T00:58:03;15.27;;;9.75;;
74674;SDS011;63200;48.810;12.352;2023-12-20T01:00:29;20.00;;;10.85;;
74674;SDS011;63200;48.810;12.352;2023-12-20T01:02:54;16.73;;;9.43;;
74674;SDS011;63200;48.810;12.352;2023-12-20T01:05:19;13.00;;;9.02;;
74674;SDS011;63200;48.810;12.352;2023-12-20T01:07:48;12.80;;;8.75;;
74674;SDS011;63200;48.810;12.352;2023-12-20T01:10:13;13.98;;;8.57;;
74674;SDS011;63200;48.810;12.352;2023-12-20T01:12:38;15.70;;;8.57;;
74674;SDS011;63200;48.810;12.352;2023-12-20T01:15:04;15.55;;;8.43;;
74674;SDS011;63200;48.810;12.352;2023-12-20T01:17:29;15.95;;;10.30;;
74674;SDS011;63200;48.810;12.352;2023-12-20T01:19:55;14.15;;;8.68;;
74674;SDS011;63200;48.810;12.352;2023-12-20T01:22:20;14.30;;;8.73;;
74674;SDS011;63200;48.810;12.352;2023-12-20T01:24:45;12.75;;;9.00;;
74674;SDS011;63200;48.810;12.352;2023-12-20T01:27:11;14.00;;;8.85;;
74674;SDS011;63200;48.810;12.352;2023-12-20T01:29:36;15.93;;;8.70;;
74674;SDS011;63200;48.810;12.352;2023-12-20T01:32:01;13.68;;;9.20;;
74674;SDS011;63200;48.810;12.352;2023-12-20T01:34:27;16.05;;;9.60;;
74674;SDS011;63200;48.810;12.352;2023-12-20T01:36:52;17.33;;;10.02;;
74674;SDS011;63200;48.810;12.352;2023-12-20T01:39:17;19.25;;;10.63;;
74674;SDS011;63200;48.810;12.352;2023-12-20T01:41:43;19.42;;;10.13;;
74674;SDS011;63200;48.810;12.352;2023-12-20T01:44:08;14.82;;;9.48;;
74674;SDS011;63200;48.810;12.352;2023-12-20T01:46:33;14.73;;;9.00;;
74674;SDS011;63200;48.810;12.352;2023-12-20T01:48:59;14.80;;;9.07;;
74674;SDS011;63200;48.810;12.352;2023-12-20T01:51:25;15.68;;;9.55;;
74674;SDS011;63200;48.810;12.352;2023-12-20T01:53:52;16.80;;;10.02;;
74674;SDS011;63200;48.810;12.352;2023-12-20T01:56:20;15.70;;;9.95;;
74674;SDS011;63200;48.810;12.352;2023-12-20T01:58:46;16.65;;;10.07;;
74674;SDS011;63200;48.810;12.352;2023-12-20T02:01:12;19.33;;;10.15;;
74674;SDS011;63200;48.810;12.352;2023-12-20T02:03:39;19.77;;;10.38;;
74674;SDS011;63200;48.810;12.352;2023-12-20T02:06:07;27.10;;;12.57;;
74674;SDS011;63200;48.810;12.352;2023-12-20T02:08:33;26.92;;;13.27;;
74674;SDS011;63200;48.810;12.352;2023-12-20T02:10:59;29.95;;;13.40;;
74674;SDS011;63200;48.810;12.352;2023-12-20T02:13:24;38.63;;;14.95;;
74674;SDS011;63200;48.810;12.352;2023-12-20T02:15:51;44.05;;;15.73;;
74674;SDS011;63200;48.810;12.352;2023-12-20T02:18:17;35.90;;;14.80;;
74674;SDS011;63200;48.810;12.352;2023-12-20T02:20:42;23.88;;;12.90;;
74674;SDS011;63200;48.810;12.352;2023-12-20T02:23:07;22.98;;;12.82;;
74674;SDS011;63200;48.810;12.352;2023-12-20T02:25:33;19.35;;;11.80;;
74674;SDS011;63200;48.810;12.352;2023-12-20T02:27:58;19.35;;;11.25;;
74674;SDS011;63200;48.810;12.352;2023-12-20T02:30:23;21.73;;;11.32;;
74674;SDS011;63200;48.810;12.352;2023-12-20T02:32:49;20.02;;;11.70;;
74674;SDS011;63200;48.810;12.352;2023-12-20T02:35:15;18.33;;;11.30;;
74674;SDS011;63200;48.810;12.352;2023-12-20T02:37:40;19.27;;;11.60;;
74674;SDS011;63200;48.810;12.352;2023-12-20T02:40:06;22.55;;;12.55;;
74674;SDS011;63200;48.810;12.352;2023-12-20T02:42:31;23.55;;;12.45;;
74674;SDS011;63200;48.810;12.352;2023-12-20T02:44:57;21.85;;;11.57;;
74674;SDS011;63200;48.810;12.352;2023-12-20T02:47:22;21.83;;;11.95;;
74674;SDS011;63200;48.810;12.352;2023-12-20T02:49:47;22.55;;;11.77;;
74674;SDS011;63200;48.810;12.352;2023-12-20T02:52:13;21.23;;;12.77;;
74674;SDS011;63200;48.810;12.352;2023-12-20T02:54:38;35.00;;;16.30;;
74674;SDS011;63200;48.810;12.352;2023-12-20T02:57:03;26.58;;;13.80;;
74674;SDS011;63200;48.810;12.352;2023-12-20T02:59:29;37.53;;;18.05;;
74674;SDS011;63200;48.810;12.352;2023-12-20T03:01:54;29.38;;;15.35;;
74674;SDS011;63200;48.810;12.352;2023-12-20T03:04:19;27.50;;;15.05;;
74674;SDS011;63200;48.810;12.352;2023-12-20T03:06:45;21.02;;;13.23;;
74674;SDS011;63200;48.810;12.352;2023-12-20T03:09:10;22.35;;;12.00;;
74674;SDS011;63200;48.810;12.352;2023-12-20T03:11:35;20.95;;;12.18;;
74674;SDS011;63200;48.810;12.352;2023-12-20T03:14:00;25.80;;;12.45;;
74674;SDS011;63200;48.810;12.352;2023-12-20T03:16:26;18.85;;;11.13;;
74674;SDS011;63200;48.810;12.352;2023-12-20T03:18:51;18.55;;;10.95;;
74674;SDS011;63200;48.810;12.352;2023-12-20T03:21:16;20.52;;;12.00;;
74674;SDS011;63200;48.810;12.352;2023-12-20T03:23:42;21.25;;;11.57;;
74674;SDS011;63200;48.810;12.352;2023-12-20T03:26:08;20.13;;;11.13;;
74674;SDS011;63200;48.810;12.352;2023-12-20T03:28:33;24.25;;;11.10;;
74674;SDS011;63200;48.810;12.352;2023-12-20T03:30:59;23.27;;;11.95;;
74674;SDS011;63200;48.810;12.352;2023-12-20T03:33:25;44.35;;;15.98;;
74674;SDS011;63200;48.810;12.352;2023-12-20T03:35:50;54.75;;;16.85;;
74674;SDS011;63200;48.810;12.352;2023-12-20T03:38:15;44.88;;;17.58;;
74674;SDS011;63200;48.810;12.352;2023-12-20T03:40:41;37.90;;;13.43;;
74674;SDS011;63200;48.810;12.352;2023-12-20T03:43:06;37.58;;;15.25;;
74674;SDS011;63200;48.810;12.352;2023-12-20T03:45:31;28.15;;;11.60;;
74674;SDS011;63200;48.810;12.352;2023-12-20T03:47:56;22.10;;;11.52;;
74674;SDS011;63200;48.810;12.352;2023-12-20T03:50:22;20.60;;;10.95;;
74674;SDS011;63200;48.810;12.352;2023-12-20T03:52:48;18.48;;;10.10;;
74674;SDS011;63200;48.810;12.352;2023-12-20T03:55:13;15.40;;;9.60;;
74674;SDS011;63200;48.810;12.352;2023-12-20T03:57:38;14.45;;;8.63;;
74674;SDS011;63200;48.810;12.352;2023-12-20T04:00:04;14.63;;;8.43;;
74674;SDS011;63200;48.810;12.352;2023-12-20T04:02:34;18.67;;;9.18;;
74674;SDS011;63200;48.810;12.352;2023-12-20T04:04:59;16.48;;;9.75;;
74674;SDS011;63200;48.810;12.352;2023-12-20T04:07:24;17.20;;;10.80;;
74674;SDS011;63200;48.810;12.352;2023-12-20T04:09:50;17.35;;;9.43;;
74674;SDS011;63200;48.810;12.352;2023-12-20T04:12:15;16.05;;;8.57;;
74674;SDS011;63200;48.810;12.352;2023-12-20T04:14:40;12.32;;;6.65;;
74674;SDS011;63200;48.810;12.352;2023-12-20T04:17:05;6.75;;;4.95;;
74674;SDS011;63200;48.810;12.352;2023-12-20T04:19:31;3.30;;;3.10;;
74674;SDS011;63200;48.810;12.352;2023-12-20T04:21:56;5.55;;;3.20;;
74674;SDS011;63200;48.810;12.352;2023-12-20T04:24:21;5.22;;;3.72;;
74674;SDS011;63200;48.810;12.352;2023-12-20T04:26:47;4.25;;;3.30;;
74674;SDS011;63200;48.810;12.352;2023-12-20T04:29:12;3.75;;;3.10;;
74674;SDS011;63200;48.810;12.352;2023-12-20T04:31:38;4.63;;;3.75;;
74674;SDS011;63200;48.810;12.352;2023-12-20T04:34:03;4.20;;;3.60;;
74674;SDS011;63200;48.810;12.352;2023-12-20T04:36:28;2.72;;;2.25;;
74674;SDS011;63200;48.810;12.352;2023-12-20T04:38:55;5.30;;;3.45;;
74674;SDS011;63200;48.810;12.352;2023-12-20T04:41:20;6.18;;;3.55;;
74674;SDS011;63200;48.810;12.352;2023-12-20T04:43:45;4.82;;;3.50;;
74674;SDS011;63200;48.810;12.352;2023-12-20T04:46:10;3.47;;;2.92;;
74674;SDS011;63200;48.810;12.352;2023-12-20T04:48:36;6.00;;;3.80;;
74674;SDS011;63200;48.810;12.352;2023-12-20T04:51:01;6.30;;;4.22;;
74674;SDS011;63200;48.810;12.352;2023-12-20T04:53:27;5.18;;;3.72;;
74674;SDS011;63200;48.810;12.352;2023-12-20T04:55:52;5.82;;;3.60;;
74674;SDS011;63200;48.810;12.352;2023-12-20T04:58:18;2.67;;;2.47;;
74674;SDS011;63200;48.810;12.352;2023-12-20T05:00:44;4.88;;;3.42;;
74674;SDS011;63200;48.810;12.352;2023-12-20T05:03:09;3.40;;;1.95;;
74674;SDS011;63200;48.810;12.352;2023-12-20T05:05:35;4.80;;;3.85;;
74674;SDS011;63200;48.810;12.352;2023-12-20T05:08:01;3.47;;;2.50;;
74674;SDS011;63200;48.810;12.352;2023-12-20T05:10:26;3.80;;;3.40;;
74674;SDS011;63200;48.810;12.352;2023-12-20T05:12:52;4.80;;;3.38;;
74674;SDS011;63200;48.810;12.352;2023-12-20T05:15:18;4.25;;;3.80;;
74674;SDS011;63200;48.810;12.352;2023-12-20T05:17:43;2.38;;;2.17;;
74674;SDS011;63200;48.810;12.352;2023-12-20T05:20:08;1.98;;;1.88;;
74674;SDS011;63200;48.810;12.352;2023-12-20T05:22:34;2.72;;;2.50;;
74674;SDS011;63200;48.810;12.352;2023-12-20T05:24:59;3.67;;;3.35;;
74674;SDS011;63200;48.810;12.352;2023-12-20T05:27:24;2.03;;;1.92;;
74674;SDS011;63200;48.810;12.352;2023-12-20T05:29:50;3.83;;;3.47;;
74674;SDS011;63200;48.810;12.352;2023-12-20T05:32:15;2.25;;;2.05;;
74674;SDS011;63200;48.810;12.352;2023-12-20T05:34:40;3.72;;;2.75;;
74674;SDS011;63200;48.810;12.352;2023-12-20T05:37:06;2.40;;;2.20;;
74674;SDS011;63200;48.810;12.352;2023-12-20T05:39:31;6.30;;;3.00;;
74674;SDS011;63200;48.810;12.352;2023-12-20T05:41:56;3.30;;;3.00;;
74674;SDS011;63200;48.810;12.352;2023-12-20T05:44:22;4.20;;;2.95;;
74674;SDS011;63200;48.810;12.352;2023-12-20T05:46:47;2.78;;;2.58;;
74674;SDS011;63200;48.810;12.352;2023-12-20T05:49:12;3.88;;;2.90;;
74674;SDS011;63200;48.810;12.352;2023-12-20T05:51:38;2.38;;;2.28;;
74674;SDS011;63200;48.810;12.352;2023-12-20T05:54:04;4.43;;;2.95;;
74674;SDS011;63200;48.810;12.352;2023-12-20T05:56:30;2.63;;;2.53;;
74674;SDS011;63200;48.810;12.352;2023-12-20T05:58:56;2.60;;;2.25;;
74674;SDS011;63200;48.810;12.352;2023-12-20T06:01:21;2.30;;;2.10;;
74674;SDS011;63200;48.810;12.352;2023-12-20T06:03:46;2.63;;;2.42;;
74674;SDS011;63200;48.810;12.352;2023-12-20T06:06:12;2.80;;;2.70;;
74674;SDS011;63200;48.810;12.352;2023-12-20T06:08:40;1.92;;;1.65;;
74674;SDS011;63200;48.810;12.352;2023-12-20T06:11:06;4.35;;;2.83;;
74674;SDS011;63200;48.810;12.352;2023-12-20T06:13:31;2.65;;;2.45;;
74674;SDS011;63200;48.810;12.352;2023-12-20T06:15:56;1.65;;;1.52;;
74674;SDS011;63200;48.810;12.352;2023-12-20T06:18:22;1.70;;;1.60;;
74674;SDS011;63200;48.810;12.352;2023-12-20T06:20:48;2.40;;;2.17;;
74674;SDS011;63200;48.810;12.352;2023-12-20T06:23:13;1.52;;;1.42;;
74674;SDS011;63200;48.810;12.352;2023-12-20T06:25:38;2.58;;;2.13;;
74674;SDS011;63200;48.810;12.352;2023-12-20T06:28:04;2.38;;;2.28;;
74674;SDS011;63200;48.810;12.352;2023-12-20T06:30:29;2.47;;;2.00;;
74674;SDS011;63200;48.810;12.352;2023-12-20T06:32:55;2.35;;;2.20;;
74674;SDS011;63200;48.810;12.352;2023-12-20T06:35:22;1.65;;;1.55;;
74674;SDS011;63200;48.810;12.352;2023-12-20T06:37:47;1.17;;;1.17;;
74674;SDS011;63200;48.810;12.352;2023-12-20T06:40:13;2.70;;;2.50;;
74674;SDS011;63200;48.810;12.352;2023-12-20T06:42:38;1.98;;;1.88;;
74674;SDS011;63200;48.810;12.352;2023-12-20T06:45:03;2.45;;;2.25;;
74674;SDS011;63200;48.810;12.352;2023-12-20T06:47:29;2.13;;;1.88;;
74674;SDS011;63200;48.810;12.352;2023-12-20T06:49:54;2.50;;;2.33;;
74674;SDS011;63200;48.810;12.352;2023-12-20T06:52:20;2.40;;;2.30;;
74674;SDS011;63200;48.810;12.352;2023-12-20T06:54:45;2.70;;;2.30;;
74674;SDS011;63200;48.810;12.352;2023-12-20T06:57:10;1.92;;;1.83;;
74674;SDS011;63200;48.810;12.352;2023-12-20T06:59:39;2.30;;;2.20;;
74674;SDS011;63200;48.810;12.352;2023-12-20T07:02:08;1.92;;;1.83;;
74674;SDS011;63200;48.810;12.352;2023-12-20T07:04:33;2.53;;;2.35;;
74674;SDS011;63200;48.810;12.352;2023-12-20T07:06:59;2.33;;;2.22;;
74674;SDS011;63200;48.810;12.352;2023-12-20T07:09:25;3.83;;;2.95;;
74674;SDS011;63200;48.810;12.352;2023-12-20T07:11:51;3.08;;;2.88;;
74674;SDS011;63200;48.810;12.352;2023-12-20T07:14:17;1.88;;;1.83;;
74674;SDS011;63200;48.810;12.352;2023-12-20T07:16:42;2.70;;;2.60;;
74674;SDS011;63200;48.810;12.352;2023-12-20T07:19:08;3.63;;;3.25;;
74674;SDS011;63200;48.810;12.352;2023-12-20T07:21:33;2.40;;;2.22;;
74674;SDS011;63200;48.810;12.352;2023-12-20T07:23:58;1.80;;;1.77;;
74674;SDS011;63200;48.810;12.352;2023-12-20T07:26:24;2.20;;;2.10;;
74674;SDS011;63200;48.810;12.352;2023-12-20T07:28:49;2.97;;;2.78;;
74674;SDS011;63200;48.810;12.352;2023-12-20T07:31:18;1.92;;;1.83;;
74674;SDS011;63200;48.810;12.352;2023-12-20T07:33:43;3.80;;;1.58;;
74674;SDS011;63200;48.810;12.352;2023-12-20T07:36:08;2.58;;;2.47;;
74674;SDS011;63200;48.810;12.352;2023-12-20T07:38:34;7.93;;;3.17;;
74674;SDS011;63200;48.810;12.352;2023-12-20T07:40:59;4.75;;;4.32;;
74674;SDS011;63200;48.810;12.352;2023-12-20T07:43:25;4.53;;;3.58;;
74674;SDS011;63200;48.810;12.352;2023-12-20T07:45:50;2.85;;;2.67;;
74674;SDS011;63200;48.810;12.352;2023-12-20T07:48:15;2.88;;;2.67;;
74674;SDS011;63200;48.810;12.352;2023-12-20T07:50:41;1.52;;;1.52;;
74674;SDS011;63200;48.810;12.352;2023-12-20T07:53:07;1.35;;;1.35;;
74674;SDS011;63200;48.810;12.352;2023-12-20T07:55:32;3.13;;;2.72;;
74674;SDS011;63200;48.810;12.352;2023-12-20T07:57:59;1.65;;;1.58;;
74674;SDS011;63200;48.810;12.352;2023-12-20T08:00:24;1.95;;;1.85;;
74674;SDS011;63200;48.810;12.352;2023-12-20T08:02:50;2.55;;;2.33;;
74674;SDS011;63200;48.810;12.352;2023-12-20T08:05:15;2.40;;;1.25;;
74674;SDS011;63200;48.810;12.352;2023-12-20T08:07:40;2.58;;;1.33;;
74674;SDS011;63200;48.810;12.352;2023-12-20T08:10:06;2.13;;;2.03;;
74674;SDS011;63200;48.810;12.352;2023-12-20T08:12:31;2.45;;;2.28;;
74674;SDS011;63200;48.810;12.352;2023-12-20T08:14:58;2.10;;;2.00;;
74674;SDS011;63200;48.810;12.352;2023-12-20T08:17:23;2.20;;;2.10;;
74674;SDS011;63200;48.810;12.352;2023-12-20T08:19:49;1.48;;;1.48;;
74674;SDS011;63200;48.810;12.352;2023-12-20T08:22:14;1.17;;;1.05;;
74674;SDS011;63200;48.810;12.352;2023-12-20T08:24:39;3.13;;;1.60;;
74674;SDS011;63200;48.810;12.352;2023-12-20T08:27:05;0.82;;;0.82;;
74674;SDS011;63200;48.810;12.352;2023-12-20T08:29:30;3.63;;;1.48;;
74674;SDS011;63200;48.810;12.352;2023-12-20T08:31:56;5.53;;;1.92;;
74674;SDS011;63200;48.810;12.352;2023-12-20T08:34:21;1.58;;;1.48;;
74674;SDS011;63200;48.810;12.352;2023-12-20T08:36:48;1.75;;;1.70;;
74674;SDS011;63200;48.810;12.352;2023-12-20T08:39:13;0.98;;;0.98;;
74674;SDS011;63200;48.810;12.352;2023-12-20T08:41:39;3.22;;;1.40;;
74674;SDS011;63200;48.810;12.352;2023-12-20T08:44:04;1.95;;;1.85;;
74674;SDS011;63200;48.810;12.352;2023-12-20T08:46:29;0.90;;;0.90;;
74674;SDS011;63200;48.810;12.352;2023-12-20T08:48:55;1.15;;;1.15;;
74674;SDS011;63200;48.810;12.352;2023-12-20T08:51:20;1.38;;;1.38;;
74674;SDS011;63200;48.810;12.352;2023-12-20T08:53:47;1.48;;;1.38;;
74674;SDS011;63200;48.810;12.352;2023-12-20T08:56:13;1.52;;;1.50;;
74674;SDS011;63200;48.810;12.352;2023-12-20T08:58:39;1.58;;;1.48;;
74674;SDS011;63200;48.810;12.352;2023-12-20T09:01:04;1.23;;;1.13;;
74674;SDS011;63200;48.810;12.352;2023-12-20T09:03:29;2.08;;;1.30;;
74674;SDS011;63200;48.810;12.352;2023-12-20T09:05:54;1.17;;;1.17;;
74674;SDS011;63200;48.810;12.352;2023-12-20T09:08:20;1.40;;;1.30;;
74674;SDS011;63200;48.810;12.352;2023-12-20T09:10:45;1.65;;;1.58;;
74674;SDS011;63200;48.810;12.352;2023-12-20T09:13:10;2.75;;;1.63;;
74674;SDS011;63200;48.810;12.352;2023-12-20T09:15:36;1.38;;;1.30;;
74674;SDS011;63200;48.810;12.352;2023-12-20T09:18:02;0.70;;;0.70;;
74674;SDS011;63200;48.810;12.352;2023-12-20T09:20:27;0.93;;;0.93;;
74674;SDS011;63200;48.810;12.352;2023-12-20T09:22:53;0.80;;;0.80;;
74674;SDS011;63200;48.810;12.352;2023-12-20T09:25:18;0.90;;;0.90;;
74674;SDS011;63200;48.810;12.352;2023-12-20T09:27:43;0.50;;;0.50;;
74674;SDS011;63200;48.810;12.352;2023-12-20T09:30:09;1.48;;;1.10;;
74674;SDS011;63200;48.810;12.352;2023-12-20T09:32:34;0.82;;;0.82;;
74674;SDS011;63200;48.810;12.352;2023-12-20T09:35:00;1.65;;;1.63;;
74674;SDS011;63200;48.810;12.352;2023-12-20T09:37:26;1.33;;;1.30;;
74674;SDS011;63200;48.810;12.352;2023-12-20T09:39:52;1.40;;;1.40;;
74674;SDS011;63200;48.810;12.352;2023-12-20T09:42:19;1.63;;;1.52;;
74674;SDS011;63200;48.810;12.352;2023-12-20T09:44:49;1.20;;;1.20;;
74674;SDS011;63200;48.810;12.352;2023-12-20T09:47:15;1.45;;;1.45;;
74674;SDS011;63200;48.810;12.352;2023-12-20T09:49:41;1.10;;;1.10;;
74674;SDS011;63200;48.810;12.352;2023-12-20T09:52:08;1.13;;;1.13;;
74674;SDS011;63200;48.810;12.352;2023-12-20T09:54:36;1.20;;;1.20;;
74674;SDS011;63200;48.810;12.352;2023-12-20T09:57:01;1.05;;;1.00;;
74674;SDS011;63200;48.810;12.352;2023-12-20T09:59:26;1.58;;;1.50;;
74674;SDS011;63200;48.810;12.352;2023-12-20T10:01:52;1.50;;;1.45;;
74674;SDS011;63200;48.810;12.352;2023-12-20T10:04:21;0.90;;;0.90;;
74674;SDS011;63200;48.810;12.352;2023-12-20T10:06:47;2.40;;;1.50;;
74674;SDS011;63200;48.810;12.352;2023-12-20T10:09:13;1.63;;;1.52;;
74674;SDS011;63200;48.810;12.352;2023-12-20T10:11:38;1.50;;;1.40;;
74674;SDS011;63200;48.810;12.352;2023-12-20T10:14:05;1.80;;;1.80;;
74674;SDS011;63200;48.810;12.352;2023-12-20T10:16:31;2.15;;;2.05;;
74674;SDS011;63200;48.810;12.352;2023-12-20T10:18:58;1.90;;;1.80;;
74674;SDS011;63200;48.810;12.352;2023-12-20T10:21:25;1.95;;;1.88;;
74674;SDS011;63200;48.810;12.352;2023-12-20T10:23:54;1.20;;;1.20;;
74674;SDS011;63200;48.810;12.352;2023-12-20T10:26:20;1.33;;;1.27;;
74674;SDS011;63200;48.810;12.352;2023-12-20T10:28:56;1.23;;;1.23;;
74674;SDS011;63200;48.810;12.352;2023-12-20T10:31:28;1.77;;;1.67;;
74674;SDS011;63200;48.810;12.352;2023-12-20T10:33:58;1.92;;;1.83;;
74674;SDS011;63200;48.810;12.352;2023-12-20T10:36:25;2.15;;;1.95;;
74674;SDS011;63200;48.810;12.352;2023-12-20T10:38:54;0.88;;;0.88;;
74674;SDS011;63200;48.810;12.352;2023-12-20T10:41:32;1.90;;;1.80;;
74674;SDS011;63200;48.810;12.352;2023-12-20T10:44:01;2.10;;;2.00;;
74674;SDS011;63200;48.810;12.352;2023-12-20T10:46:28;3.38;;;1.85;;
74674;SDS011;63200;48.810;12.352;2023-12-20T10:48:54;1.85;;;1.85;;
74674;SDS011;63200;48.810;12.352;2023-12-20T10:51:21;2.30;;;2.10;;
74674;SDS011;63200;48.810;12.352;2023-12-20T10:53:48;2.17;;;2.10;;
74674;SDS011;63200;48.810;12.352;2023-12-20T10:56:15;1.70;;;1.60;;
74674;SDS011;63200;48.810;12.352;2023-12-20T10:58:45;1.67;;;1.67;;
74674;SDS011;63200;48.810;12.352;2023-12-20T11:01:15;1.63;;;1.52;;
74674;SDS011;63200;48.810;12.352;2023-12-20T11:03:43;1.23;;;1.23;;
74674;SDS011;63200;48.810;12.352;2023-12-20T11:08:47;1.73;;;1.63;;
74674;SDS011;63200;48.810;12.352;2023-12-20T11:11:20;1.30;;;1.30;;
74674;SDS011;63200;48.810;12.352;2023-12-20T11:13:54;1.50;;;1.50;;
74674;SDS011;63200;48.810;12.352;2023-12-20T11:16:24;0.90;;;0.88;;
74674;SDS011;63200;48.810;12.352;2023-12-20T11:18:50;1.92;;;1.83;;
74674;SDS011;63200;48.810;12.352;2023-12-20T11:21:16;0.93;;;0.93;;
74674;SDS011;63200;48.810;12.352;2023-12-20T11:23:41;1.92;;;1.48;;
74674;SDS011;63200;48.810;12.352;2023-12-20T11:26:07;0.70;;;0.70;;
74674;SDS011;63200;48.810;12.352;2023-12-20T11:28:33;0.95;;;0.88;;
74674;SDS011;63200;48.810;12.352;2023-12-20T11:30:58;0.90;;;0.90;;
74674;SDS011;63200;48.810;12.352;2023-12-20T11:33:29;0.75;;;0.75;;
74674;SDS011;63200;48.810;12.352;2023-12-20T11:35:56;1.35;;;1.13;;
74674;SDS011;63200;48.810;12.352;2023-12-20T11:38:22;1.33;;;1.05;;
74674;SDS011;63200;48.810;12.352;2023-12-20T11:40:49;0.70;;;0.70;;
74674;SDS011;63200;48.810;12.352;2023-12-20T11:46:06;0.60;;;0.60;;
74674;SDS011;63200;48.810;12.352;2023-12-20T11:48:34;1.00;;;1.00;;
74674;SDS011;63200;48.810;12.352;2023-12-20T11:51:00;3.55;;;0.90;;
74674;SDS011;63200;48.810;12.352;2023-12-20T11:53:25;1.30;;;1.20;;
74674;SDS011;63200;48.810;12.352;2023-12-20T11:55:51;0.95;;;0.95;;
74674;SDS011;63200;48.810;12.352;2023-12-20T11:58:16;0.85;;;0.85;;
74674;SDS011;63200;48.810;12.352;2023-12-20T12:00:42;2.28;;;1.50;;
74674;SDS011;63200;48.810;12.352;2023-12-20T12:03:14;0.70;;;0.70;;
74674;SDS011;63200;48.810;12.352;2023-12-20T12:05:39;0.77;;;0.77;;
74674;SDS011;63200;48.810;12.352;2023-12-20T12:08:05;1.17;;;1.17;;
74674;SDS011;63200;48.810;12.352;2023-12-20T12:10:30;0.77;;;0.77;;
74674;SDS011;63200;48.810;12.352;2023-12-20T12:12:56;1.10;;;1.10;;
74674;SDS011;63200;48.810;12.352;2023-12-20T12:15:21;0.95;;;0.95;;
74674;SDS011;63200;48.810;12.352;2023-12-20T12:17:53;2.42;;;1.40;;
74674;SDS011;63200;48.810;12.352;2023-12-20T12:20:20;4.00;;;2.50;;
74674;SDS011;63200;48.810;12.352;2023-12-20T12:22:45;1.42;;;0.93;;
74674;SDS011;63200;48.810;12.352;2023-12-20T12:25:12;5.85;;;0.80;;
74674;SDS011;63200;48.810;12.352;2023-12-20T12:27:41;0.82;;;0.82;;
74674;SDS011;63200;48.810;12.352;2023-12-20T12:30:07;2.30;;;1.33;;
74674;SDS011;63200;48.810;12.352;2023-12-20T12:32:34;1.00;;;1.00;;
74674;SDS011;63200;48.810;12.352;2023-12-20T12:34:59;1.00;;;0.90;;
74674;SDS011;63200;48.810;12.352;2023-12-20T12:37:25;7.53;;;1.83;;
74674;SDS011;63200;48.810;12.352;2023-12-20T12:39:53;0.70;;;0.70;;
74674;SDS011;63200;48.810;12.352;2023-12-20T12:42:19;0.60;;;0.60;;
74674;SDS011;63200;48.810;12.352;2023-12-20T12:44:45;0.80;;;0.80;;
74674;SDS011;63200;48.810;12.352;2023-12-20T12:47:11;0.60;;;0.60;;
74674;SDS011;63200;48.810;12.352;2023-12-20T12:49:36;1.65;;;0.93;;
74674;SDS011;63200;48.810;12.352;2023-12-20T12:52:01;0.65;;;0.65;;
74674;SDS011;63200;48.810;12.352;2023-12-20T12:54:28;3.67;;;1.17;;
74674;SDS011;63200;48.810;12.352;2023-12-20T12:56:53;0.75;;;0.73;;
74674;SDS011;63200;48.810;12.352;2023-12-20T12:59:18;3.83;;;0.70;;
74674;SDS011;63200;48.810;12.352;2023-12-20T13:01:44;0.60;;;0.60;;
74674;SDS011;63200;48.810;12.352;2023-12-20T13:04:09;0.80;;;0.80;;
74674;SDS011;63200;48.810;12.352;2023-12-20T13:06:38;1.10;;;1.10;;
74674;SDS011;63200;48.810;12.352;2023-12-20T13:09:04;2.67;;;0.80;;
74674;SDS011;63200;48.810;12.352;2023-12-20T13:11:30;6.30;;;1.33;;
74674;SDS011;63200;48.810;12.352;2023-12-20T13:13:56;0.80;;;0.77;;
74674;SDS011;63200;48.810;12.352;2023-12-20T13:16:22;0.85;;;0.70;;
74674;SDS011;63200;48.810;12.352;2023-12-20T13:18:48;3.58;;;1.05;;
74674;SDS011;63200;48.810;12.352;2023-12-20T13:21:13;3.45;;;0.77;;
74674;SDS011;63200;48.810;12.352;2023-12-20T13:23:38;0.30;;;0.30;;
74674;SDS011;63200;48.810;12.352;2023-12-20T13:26:04;3.40;;;0.82;;
74674;SDS011;63200;48.810;12.352;2023-12-20T13:28:29;1.02;;;0.90;;
74674;SDS011;63200;48.810;12.352;2023-12-20T13:30:54;2.38;;;0.60;;
74674;SDS011;63200;48.810;12.352;2023-12-20T13:33:20;0.60;;;0.60;;
74674;SDS011;63200;48.810;12.352;2023-12-20T13:35:45;2.17;;;0.82;;
74674;SDS011;63200;48.810;12.352;2023-12-20T13:38:12;0.73;;;0.73;;
74674;SDS011;63200;48.810;12.352;2023-12-20T13:40:38;0.82;;;0.80;;
74674;SDS011;63200;48.810;12.352;2023-12-20T13:43:03;3.05;;;0.77;;
74674;SDS011;63200;48.810;12.352;2023-12-20T13:45:28;0.80;;;0.70;;
74674;SDS011;63200;48.810;12.352;2023-12-20T13:47:54;0.70;;;0.70;;
74674;SDS011;63200;48.810;12.352;2023-12-20T13:50:19;1.20;;;0.47;;
74674;SDS011;63200;48.810;12.352;2023-12-20T13:52:44;0.30;;;0.30;;
74674;SDS011;63200;48.810;12.352;2023-12-20T13:55:11;1.55;;;0.70;;
74674;SDS011;63200;48.810;12.352;2023-12-20T13:57:36;2.35;;;0.60;;
74674;SDS011;63200;48.810;12.352;2023-12-20T14:00:06;5.70;;;0.80;;
74674;SDS011;63200;48.810;12.352;2023-12-20T14:02:39;1.65;;;1.02;;
74674;SDS011;63200;48.810;12.352;2023-12-20T14:05:04;0.63;;;0.60;;
74674;SDS011;63200;48.810;12.352;2023-12-20T14:07:31;2.72;;;0.85;;
74674;SDS011;63200;48.810;12.352;2023-12-20T14:09:56;0.90;;;0.80;;
74674;SDS011;63200;48.810;12.352;2023-12-20T14:12:21;2.17;;;0.88;;
74674;SDS011;63200;48.810;12.352;2023-12-20T14:14:47;0.52;;;0.52;;
74674;SDS011;63200;48.810;12.352;2023-12-20T14:17:12;3.92;;;1.20;;
74674;SDS011;63200;48.810;12.352;2023-12-20T14:19:37;2.58;;;1.00;;
74674;SDS011;63200;48.810;12.352;2023-12-20T14:22:03;1.83;;;0.93;;
74674;SDS011;63200;48.810;12.352;2023-12-20T14:24:29;1.17;;;1.08;;
74674;SDS011;63200;48.810;12.352;2023-12-20T14:26:54;1.40;;;0.75;;